Delta, CO

5:15 PM MST on February 07, 2016 (GMT -0700)
Garnet Mesa | | Change Station
CLOSE
Current Station
Personal Weather Station
Location: Delta, CO
Elevation: 5056 ft
Nearby Weather Stations

Elev 5056 ft 38.74 °N, 108.06 °W | Updated 8 seconds ago

Clear
Clear
36.5 °F
Feels Like 36 °F
N
0.0
Wind Variable Wind from East
Gusts 0.0 mph

Today
High -- | Low -- °F
--% Chance of Precip.
Yesterday
High -- | Low -- °F
Precip. -- in
Pressure 30.49 in
Visibility 10.0 miles
Clouds Clear
Windchill 36 °F
Dew Point 15 °F
Humidity 41%
Rainfall 0.02 in
Snow Depth Not available.
7:13 AM 5:40 PM
Waning Crescent, 1% visible
METAR KAJZ 072355Z AUTO 00000KT 10SM CLR 03/M07 A3049 RMK AO2 T00291071 10033 21024
Pressure 30.49 in
Visibility 10.0 miles
Clouds Clear
Windchill 36 °F
Dew Point 15 °F
Humidity 41%
Rainfall 0.02 in
Snow Depth Not available.
7:13 AM 5:40 PM
Waning Crescent, 1% visible
METAR KAJZ 072355Z AUTO 00000KT 10SM CLR 03/M07 A3049 RMK AO2 T00291071 10033 21024

10-Day Weather Forecast

Almanac

Astronomy

Feb. 07, 2016 Rise Set
Actual Time
Civil Twilight
Nautical Twilight
Astronomical Twilight
Moon
Length of Visible Light
Length of Day
Tomorrow will be .
, % of the Moon is Illuminated

Today's Extremes

State Highs State Lows

Community

WunderPhotos

Upload Photos

1,891,334 photos uploaded!

WunderBlog® & News

Nearby

Air Quality

  Air Quality AQ Index Pollutant
Not available.

Snow Depth

Station Depth Elevation

Earthquake Activity

City Distance Mag. Time & Date
Minimum magnitude displayed is 2.5.

Coastal Water Temperatures

Place Temperature

Stations

Nearby Weather Stations

Station Location Temp. Windchill Dew Point Humidity Wind Precip. Elev Updated Type
                   

Watches & Warnings

There are currently no watches in effect.